Station info - map view · info · telemetry · weather · raw · status · beacons · messages · bulletins · browse · moving · my account
Callsign, ship name or locator: Clear       
It is possible to search using wildcards (*?) after a prefix. Example: OH*
APRS station KB5EO-9 - show graphs
Map loading...
Mic-E message: En route
Location: 30°19.01' N 81°40.63' W - locator EM90DH86RA - show map - static map
1.7 miles Southwest bearing 230° from Jacksonville, Duval County, Florida, United States [?]
10.3 miles Northeast bearing 23° from Bellair-Meadowbrook Terrace, Clay County, Florida, United States
60.1 miles Northeast bearing 40° from Gainesville, Alachua County, Florida, United States
Last position: 2018-12-07 21:11:40 EST (11d 13h1m ago)
2018-12-07 21:11:40 EST local time at Jacksonville, United States [?]
Altitude: 98 ft
Course: 114°
Speed: 48 MPH
Device: Kenwood: TM-D700 (rig)
Last path: KB5EO-9>SP1Y0Q via W4DFU-3*,WIDE2-1,qAR,KK4QIG (good)
Positions stored: 5276
Stations near current position of KB5EO-9 - show more
callsign distance last heard - EST      callsign distance last heard - EST
N2XDA0.9 miles 86°2018-12-19 09:32:33 W7ITX B1.7 miles 50°2018-11-24 15:20:59
W7ITX-B1.7 miles 50°2018-11-24 15:21:09 N4MEW-93.0 miles 236°2018-12-08 08:59:41
KM4JQK3.4 miles 148°2018-11-24 19:58:33 CW27033.5 miles 256°2018-12-19 10:08:11
EW52474.0 miles 153°2018-12-19 10:08:32 K4DRE4.3 miles 232°2018-12-18 18:36:34
CW06394.5 miles 201°2018-12-19 10:03:24 DW74564.8 miles 192°2018-12-19 10:03:23
EW92214.9 miles 211°2018-12-19 10:01:41 CW48405.2 miles 19°2018-12-19 10:10:04
KK4ECR-95.5 miles 139°2018-12-19 06:35:17 KG4GEM-25.6 miles 90°2018-12-19 09:45:51
KNIP5.8 miles 174°2018-12-19 07:11:13 N2UYJ6.3 miles 223°2018-12-12 15:39:44
N6EIV-16.4 miles 219°2018-12-19 09:58:39 N6EIV-96.9 miles 227°2018-12-19 09:42:02
K3ATV7.2 miles 134°2018-12-19 10:12:06 JAXSVRElA7.4 miles 205°2018-12-03 10:04:19
Stations which heard KB5EO-9 directly on radio –
callsign pkts first heard - EST last heard longest (tx => rx) longest at - EST
KD4MOJ-5 16 2018-12-07 16:50:02 2018-12-07 17:57:03 EM70JR > EM70PO 28.8 miles 107° 2018-12-07 16:50:02
KC5YSM-5 5 2018-12-07 07:56:13 2018-12-07 08:23:26 EM30CC > EM20WB 16.5 miles 262° 2018-12-07 08:23:26
KD4MOJ-7 9 2018-12-07 18:09:09 2018-12-07 18:39:24 EM80BL > EM70VO 21.8 miles 291° 2018-12-07 18:39:24
KC5YSM-2 4 2018-12-07 08:02:15 2018-12-07 08:14:21 EM20WA > EL39AX 10.9 miles 112° 2018-12-07 08:02:15
K5GVR-10 1 2018-12-07 13:11:57 2018-12-07 13:11:57 EM50NK > EM50LR 22.4 miles 337° 2018-12-07 13:11:57
KI4ELU-7 8 2018-12-07 14:03:29 2018-12-07 15:19:16 EM60MO > EM60DN 44.7 miles 266° 2018-12-07 15:19:16
K4OZS-10 4 2018-12-07 20:50:29 2018-12-07 20:59:33 EM90BH > EL89XC 82.2 miles 187° 2018-12-07 20:59:33
KC5DAQ-1 1 2018-12-07 06:28:29 2018-12-07 06:28:29 EL29CS > EM20BD 26.4 miles 357° 2018-12-07 06:28:29
W5KRO 1 2018-12-07 11:29:00 2018-12-07 11:29:00 EM40NL > EM40NL 1.9 miles 278° 2018-12-07 11:29:00
N5LUY-2 4 2018-12-07 06:10:18 2018-12-07 06:52:42 EL19WS > EL29EX 32.9 miles 62° 2018-12-07 06:10:18
N4SAR 2 2018-12-07 14:39:51 2018-12-07 14:42:54 EM60HN > EM60IL 5.0 miles 160° 2018-12-07 14:39:51
WX5II-10 3 2018-12-07 04:20:45 2018-12-07 04:30:25 EL19CO > EL09TN 31.9 miles 261° 2018-12-07 04:30:25
W4NAS 5 2018-12-07 20:35:16 2018-12-07 21:08:39 EM80TG > EM90CO 40.8 miles 53° 2018-12-07 20:35:16
KD5QZD-12 6 2018-12-07 11:26:00 2018-12-07 11:44:09 EM40RL > EM40OL 12.4 miles 270° 2018-12-07 11:44:09
W4IAX-7 10 2018-12-07 13:45:16 2018-12-07 15:04:08 EM60MO > EM60CQ 50.4 miles 275° 2018-12-07 15:04:08
LAGRNG 11 2018-12-07 05:03:42 2018-12-07 05:58:11 EL19TR > EL19NV 32.4 miles 288° 2018-12-07 05:58:11
W4DFU-3 1 2018-12-07 21:11:40 2018-12-07 21:11:40 EM90DH > EL89TP 61.5 miles 221° 2018-12-07 21:11:40
KD5SVO-10 1 2018-12-07 06:37:33 2018-12-07 06:37:33 EL29ES > EL29DQ 6.3 miles 197° 2018-12-07 06:37:33
AUSWST 4 2018-12-07 04:45:33 2018-12-07 04:54:38 EL19HP > EM10CH 51.7 miles 333° 2018-12-07 04:54:38
N9QO-1 12 2018-12-07 09:29:58 2018-12-07 10:07:20 EM30QF > EM30TE 13.1 miles 100° 2018-12-07 09:29:58
KF4TPM 2 2018-12-07 19:45:59 2018-12-07 20:11:03 EM80MH > EM80MD 13.1 miles 171° 2018-12-07 19:45:59
K5BAY-10 8 2018-12-07 07:07:49 2018-12-07 07:28:59 EL29PU > EL29MS 16.6 miles 250° 2018-12-07 07:28:59
W4CJB 1 2018-12-07 15:58:35 2018-12-07 15:58:35 EM60VR > EM60WR 7.0 miles 89° 2018-12-07 15:58:35
N4EMA 11 2018-12-07 15:46:30 2018-12-07 16:22:48 EM60SR > EM60WR 22.0 miles 89° 2018-12-07 15:46:30
KB5WIO-7 1 2018-12-07 07:50:10 2018-12-07 07:50:10 EL29UV > EM20UI 33.1 miles 0° 2018-12-07 07:50:10
N5CNB-14 6 2018-12-07 05:37:00 2018-12-07 05:55:09 EL19OQ > EL19RU 19.1 miles 54° 2018-12-07 05:37:00
WX5II-3 1 2018-12-07 04:24:22 2018-12-07 04:24:22 EL19AO > EL09WE 30.0 miles 200° 2018-12-07 04:24:22
KD5CQB-2 8 2018-12-07 10:49:42 2018-12-07 11:22:58 EM40FJ > EM40MN 35.8 miles 69° 2018-12-07 10:49:42
WR4SG-5 1 2018-12-07 19:00:33 2018-12-07 19:00:33 EM80GK > EM80HR 22.0 miles 15° 2018-12-07 19:00:33
W5EZM-2 4 2018-12-07 06:04:15 2018-12-07 06:19:25 EL19US > EL29CS 27.2 miles 85° 2018-12-07 06:04:15
W0MAC-1 1 2018-12-07 06:22:26 2018-12-07 06:22:26 EL29AS > EM20FA 29.5 miles 53° 2018-12-07 06:22:26
KB5HCD-2 6 2018-12-07 06:31:30 2018-12-07 07:01:45 EL29JS > EL29GU 17.9 miles 287° 2018-12-07 07:01:45
KW4TOM 1 2018-12-07 14:52:01 2018-12-07 14:52:01 EM60KM > EM60KJ 9.6 miles 166° 2018-12-07 14:52:01

Only position packets which were originated by the station are shown here. The range statistics show some extra long hops, because some digipeaters do not correctly add themselves to the digipeater path. Please check the raw packets.
About this site
This page shows real-time information collected from the Automatic Position Reporting System Internet network (APRS-IS). APRS is used by amateur (ham) radio operators to transmit real-time position information, weather data, telemetry and messages over the radio. A vehicle equipped with a GPS receiver, a VHF transmitter or HF transceiver and a small computer device called a tracker transmits it's location, speed and course in a small data packet, which is then received by a nearby iGate receiving site which forwards the packet on the Internet. Systems connected to the Internet can send information on the APRS-IS without a radio transmitter, or collect and display information transmitted anywhere in the world.
FAQ · Blog · Discussion group · Linking to aprs.fi · AIS sites · Service status · Database statistics · Advertising on aprs.fi · Technical details · API · Change log · Planned changes · Credits and thanks · Terms Of Service · iPhone/iPad APRS